sensor_id;sensor_type;location;lat;lon;timestamp;pressure;altitude;pressure_sealevel;temperature;humidity
70589;BME280;58152;49.202;18.744;2022-07-23T00:01:37;97438.81;;;25.97;46.30
70589;BME280;58152;49.202;18.744;2022-07-23T00:04:03;97441.97;;;25.93;46.64
70589;BME280;58152;49.202;18.744;2022-07-23T00:06:29;97442.81;;;25.93;46.54
70589;BME280;58152;49.202;18.744;2022-07-23T00:08:57;97441.31;;;25.91;46.61
70589;BME280;58152;49.202;18.744;2022-07-23T00:11:23;97444.19;;;25.89;46.41
70589;BME280;58152;49.202;18.744;2022-07-23T00:13:48;97440.94;;;25.77;46.56
70589;BME280;58152;49.202;18.744;2022-07-23T00:16:14;97467.97;;;25.76;46.83
70589;BME280;58152;49.202;18.744;2022-07-23T00:18:40;97453.63;;;25.67;46.92
70589;BME280;58152;49.202;18.744;2022-07-23T00:21:06;97452.47;;;25.70;46.84
70589;BME280;58152;49.202;18.744;2022-07-23T00:23:32;97443.72;;;25.68;47.22
70589;BME280;58152;49.202;18.744;2022-07-23T00:25:57;97451.09;;;25.66;46.96
70589;BME280;58152;49.202;18.744;2022-07-23T00:28:23;97449.75;;;25.62;47.16
70589;BME280;58152;49.202;18.744;2022-07-23T00:30:48;97457.13;;;25.59;47.16
70589;BME280;58152;49.202;18.744;2022-07-23T00:33:14;97451.09;;;25.57;47.22
70589;BME280;58152;49.202;18.744;2022-07-23T00:35:41;97459.13;;;25.57;47.08
70589;BME280;58152;49.202;18.744;2022-07-23T00:38:12;97461.28;;;25.54;47.08
70589;BME280;58152;49.202;18.744;2022-07-23T00:40:38;97454.88;;;25.47;47.38
70589;BME280;58152;49.202;18.744;2022-07-23T00:43:07;97466.09;;;25.42;47.26
70589;BME280;58152;49.202;18.744;2022-07-23T00:45:35;97466.25;;;25.41;47.17
70589;BME280;58152;49.202;18.744;2022-07-23T00:48:01;97464.06;;;25.36;47.59
70589;BME280;58152;49.202;18.744;2022-07-23T00:50:27;97473.25;;;25.33;47.15
70589;BME280;58152;49.202;18.744;2022-07-23T00:52:53;97470.56;;;25.33;47.42
70589;BME280;58152;49.202;18.744;2022-07-23T00:55:19;97463.16;;;25.27;47.60
70589;BME280;58152;49.202;18.744;2022-07-23T00:57:44;97457.59;;;25.21;47.59
70589;BME280;58152;49.202;18.744;2022-07-23T01:00:15;97462.44;;;25.17;47.39
70589;BME280;58152;49.202;18.744;2022-07-23T01:02:44;97462.22;;;25.10;47.75
70589;BME280;58152;49.202;18.744;2022-07-23T01:05:10;97448.72;;;25.02;47.58
70589;BME280;58152;49.202;18.744;2022-07-23T01:07:36;97453.25;;;25.02;47.86
70589;BME280;58152;49.202;18.744;2022-07-23T01:10:03;97451.56;;;25.01;47.88
70589;BME280;58152;49.202;18.744;2022-07-23T01:12:29;97451.72;;;24.99;48.16
70589;BME280;58152;49.202;18.744;2022-07-23T01:14:58;97457.56;;;24.95;48.30
70589;BME280;58152;49.202;18.744;2022-07-23T01:17:24;97447.13;;;24.92;48.29
70589;BME280;58152;49.202;18.744;2022-07-23T01:19:49;97429.16;;;24.84;48.42
70589;BME280;58152;49.202;18.744;2022-07-23T01:22:18;97445.38;;;24.82;48.28
70589;BME280;58152;49.202;18.744;2022-07-23T01:24:43;97427.72;;;24.72;48.38
70589;BME280;58152;49.202;18.744;2022-07-23T01:27:09;97432.25;;;24.71;48.63
70589;BME280;58152;49.202;18.744;2022-07-23T01:29:34;97431.69;;;24.68;48.52
70589;BME280;58152;49.202;18.744;2022-07-23T01:32:00;97435.38;;;24.67;48.81
70589;BME280;58152;49.202;18.744;2022-07-23T01:34:25;97430.50;;;24.62;48.61
70589;BME280;58152;49.202;18.744;2022-07-23T01:36:51;97424.41;;;24.60;49.16
70589;BME280;58152;49.202;18.744;2022-07-23T01:39:17;97428.44;;;24.56;49.06
70589;BME280;58152;49.202;18.744;2022-07-23T01:41:42;97430.59;;;24.52;48.83
70589;BME280;58152;49.202;18.744;2022-07-23T01:44:08;97430.03;;;24.49;49.02
70589;BME280;58152;49.202;18.744;2022-07-23T01:46:33;97433.03;;;24.46;49.35
70589;BME280;58152;49.202;18.744;2022-07-23T01:48:59;97431.81;;;24.40;49.17
70589;BME280;58152;49.202;18.744;2022-07-23T01:51:24;97432.53;;;24.32;49.48
70589;BME280;58152;49.202;18.744;2022-07-23T01:53:50;97439.06;;;24.30;49.52
70589;BME280;58152;49.202;18.744;2022-07-23T01:56:15;97425.75;;;24.20;49.72
70589;BME280;58152;49.202;18.744;2022-07-23T01:58:41;97417.00;;;24.18;49.92
70589;BME280;58152;49.202;18.744;2022-07-23T02:01:07;97424.06;;;24.19;49.88
70589;BME280;58152;49.202;18.744;2022-07-23T02:03:32;97420.69;;;24.17;49.78
70589;BME280;58152;49.202;18.744;2022-07-23T02:05:58;97422.69;;;24.15;49.66
70589;BME280;58152;49.202;18.744;2022-07-23T02:08:23;97417.78;;;24.11;49.86
70589;BME280;58152;49.202;18.744;2022-07-23T02:10:49;97422.59;;;24.07;49.93
70589;BME280;58152;49.202;18.744;2022-07-23T02:13:16;97422.75;;;24.05;50.02
70589;BME280;58152;49.202;18.744;2022-07-23T02:15:42;97413.31;;;24.01;50.15
70589;BME280;58152;49.202;18.744;2022-07-23T02:18:07;97417.69;;;24.02;50.44
70589;BME280;58152;49.202;18.744;2022-07-23T02:20:33;97422.03;;;24.03;50.46
70589;BME280;58152;49.202;18.744;2022-07-23T02:22:59;97415.16;;;24.01;50.43
70589;BME280;58152;49.202;18.744;2022-07-23T02:25:24;97425.19;;;23.99;50.45
70589;BME280;58152;49.202;18.744;2022-07-23T02:27:50;97420.28;;;23.94;50.55
70589;BME280;58152;49.202;18.744;2022-07-23T02:30:15;97420.44;;;23.93;50.50
70589;BME280;58152;49.202;18.744;2022-07-23T02:32:41;97418.34;;;23.87;50.82
70589;BME280;58152;49.202;18.744;2022-07-23T02:35:06;97414.81;;;23.86;50.82
70589;BME280;58152;49.202;18.744;2022-07-23T02:37:33;97416.13;;;23.82;51.01
70589;BME280;58152;49.202;18.744;2022-07-23T02:39:58;97422.63;;;23.79;51.10
70589;BME280;58152;49.202;18.744;2022-07-23T02:42:24;97415.22;;;23.73;51.03
70589;BME280;58152;49.202;18.744;2022-07-23T02:44:50;97421.41;;;23.74;51.10
70589;BME280;58152;49.202;18.744;2022-07-23T02:47:16;97418.63;;;23.66;51.18
70589;BME280;58152;49.202;18.744;2022-07-23T02:49:41;97416.19;;;23.63;51.15
70589;BME280;58152;49.202;18.744;2022-07-23T02:52:07;97430.59;;;23.62;51.43
70589;BME280;58152;49.202;18.744;2022-07-23T02:54:35;97428.38;;;23.57;51.50
70589;BME280;58152;49.202;18.744;2022-07-23T02:57:01;97415.59;;;23.51;51.93
70589;BME280;58152;49.202;18.744;2022-07-23T02:59:26;97430.09;;;23.48;51.62
70589;BME280;58152;49.202;18.744;2022-07-23T03:01:52;97424.19;;;23.45;51.72
70589;BME280;58152;49.202;18.744;2022-07-23T03:04:17;97418.44;;;23.40;51.71
70589;BME280;58152;49.202;18.744;2022-07-23T03:06:43;97420.44;;;23.38;52.06
70589;BME280;58152;49.202;18.744;2022-07-23T03:09:08;97419.88;;;23.34;51.99
70589;BME280;58152;49.202;18.744;2022-07-23T03:11:34;97416.81;;;23.29;52.03
70589;BME280;58152;49.202;18.744;2022-07-23T03:13:59;97422.16;;;23.29;51.96
70589;BME280;58152;49.202;18.744;2022-07-23T03:16:25;97424.66;;;23.30;51.96
70589;BME280;58152;49.202;18.744;2022-07-23T03:18:50;97423.00;;;23.29;52.27
70589;BME280;58152;49.202;18.744;2022-07-23T03:21:17;97426.13;;;23.25;52.31
70589;BME280;58152;49.202;18.744;2022-07-23T03:23:42;97432.59;;;23.22;52.62
70589;BME280;58152;49.202;18.744;2022-07-23T03:26:08;97421.19;;;23.20;52.32
70589;BME280;58152;49.202;18.744;2022-07-23T03:28:33;97423.16;;;23.18;52.51
70589;BME280;58152;49.202;18.744;2022-07-23T03:30:59;97421.63;;;23.16;52.23
70589;BME280;58152;49.202;18.744;2022-07-23T03:33:24;97416.56;;;23.13;52.55
70589;BME280;58152;49.202;18.744;2022-07-23T03:35:50;97415.16;;;23.08;52.61
70589;BME280;58152;49.202;18.744;2022-07-23T03:38:15;97418.16;;;23.05;52.79
70589;BME280;58152;49.202;18.744;2022-07-23T03:40:41;97414.50;;;23.06;52.91
70589;BME280;58152;49.202;18.744;2022-07-23T03:43:06;97412.41;;;23.00;53.14
70589;BME280;58152;49.202;18.744;2022-07-23T03:45:32;97422.13;;;23.01;53.00
70589;BME280;58152;49.202;18.744;2022-07-23T03:47:58;97420.28;;;23.02;52.94
70589;BME280;58152;49.202;18.744;2022-07-23T03:50:24;97421.28;;;23.01;53.24
70589;BME280;58152;49.202;18.744;2022-07-23T03:52:49;97402.97;;;22.96;53.10
70589;BME280;58152;49.202;18.744;2022-07-23T03:55:14;97415.38;;;22.97;53.24
70589;BME280;58152;49.202;18.744;2022-07-23T03:57:40;97410.69;;;22.99;53.18
70589;BME280;58152;49.202;18.744;2022-07-23T04:00:07;97402.16;;;22.96;53.36
70589;BME280;58152;49.202;18.744;2022-07-23T04:02:35;97399.59;;;22.94;53.54
70589;BME280;58152;49.202;18.744;2022-07-23T04:05:00;97415.66;;;22.94;53.51
70589;BME280;58152;49.202;18.744;2022-07-23T04:07:26;97418.19;;;22.96;53.71
70589;BME280;58152;49.202;18.744;2022-07-23T04:09:52;97425.06;;;22.98;53.63
70589;BME280;58152;49.202;18.744;2022-07-23T04:12:18;97402.97;;;22.96;53.44
70589;BME280;58152;49.202;18.744;2022-07-23T04:14:44;97405.50;;;22.98;53.57
70589;BME280;58152;49.202;18.744;2022-07-23T04:17:10;97414.38;;;22.98;53.61
70589;BME280;58152;49.202;18.744;2022-07-23T04:19:35;97411.00;;;22.96;53.53
70589;BME280;58152;49.202;18.744;2022-07-23T04:22:05;97400.16;;;22.98;53.64
70589;BME280;58152;49.202;18.744;2022-07-23T04:24:31;97405.22;;;23.01;53.63
70589;BME280;58152;49.202;18.744;2022-07-23T04:26:57;97399.16;;;22.99;53.47
70589;BME280;58152;49.202;18.744;2022-07-23T04:29:23;97396.19;;;23.02;53.63
70589;BME280;58152;49.202;18.744;2022-07-23T04:31:48;97401.41;;;23.03;53.79
70589;BME280;58152;49.202;18.744;2022-07-23T04:34:14;97401.72;;;23.00;53.88
70589;BME280;58152;49.202;18.744;2022-07-23T04:36:39;97402.53;;;23.01;54.04
70589;BME280;58152;49.202;18.744;2022-07-23T04:39:05;97386.50;;;23.01;54.00
70589;BME280;58152;49.202;18.744;2022-07-23T04:41:30;97390.84;;;23.02;54.26
70589;BME280;58152;49.202;18.744;2022-07-23T04:43:56;97385.50;;;23.02;54.39
70589;BME280;58152;49.202;18.744;2022-07-23T04:46:21;97384.78;;;23.00;54.14
70589;BME280;58152;49.202;18.744;2022-07-23T04:48:46;97386.34;;;23.02;54.33
70589;BME280;58152;49.202;18.744;2022-07-23T04:51:12;97384.34;;;23.04;54.72
70589;BME280;58152;49.202;18.744;2022-07-23T04:53:38;97386.91;;;23.06;54.16
70589;BME280;58152;49.202;18.744;2022-07-23T04:56:04;97400.84;;;23.10;54.52
70589;BME280;58152;49.202;18.744;2022-07-23T04:58:29;97397.44;;;23.07;54.34
70589;BME280;58152;49.202;18.744;2022-07-23T05:00:57;97391.41;;;23.05;54.28
70589;BME280;58152;49.202;18.744;2022-07-23T05:03:23;97389.16;;;23.01;54.27
70589;BME280;58152;49.202;18.744;2022-07-23T05:05:49;97387.34;;;23.01;54.36
70589;BME280;58152;49.202;18.744;2022-07-23T05:08:14;97394.53;;;23.01;54.19
70589;BME280;58152;49.202;18.744;2022-07-23T05:10:40;97399.03;;;23.00;54.35
70589;BME280;58152;49.202;18.744;2022-07-23T05:13:06;97380.44;;;22.99;54.51
70589;BME280;58152;49.202;18.744;2022-07-23T05:15:31;97391.97;;;22.99;54.47
70589;BME280;58152;49.202;18.744;2022-07-23T05:17:57;97390.13;;;23.00;54.38
70589;BME280;58152;49.202;18.744;2022-07-23T05:20:22;97380.16;;;23.02;54.39
70589;BME280;58152;49.202;18.744;2022-07-23T05:22:48;97371.41;;;23.00;54.42
70589;BME280;58152;49.202;18.744;2022-07-23T05:25:13;97372.81;;;23.04;54.28
70589;BME280;58152;49.202;18.744;2022-07-23T05:27:39;97376.47;;;23.03;54.61
70589;BME280;58152;49.202;18.744;2022-07-23T05:30:05;97375.63;;;23.02;54.89
70589;BME280;58152;49.202;18.744;2022-07-23T05:32:33;97385.22;;;23.05;54.77
70589;BME280;58152;49.202;18.744;2022-07-23T05:34:59;97380.00;;;23.03;55.05
70589;BME280;58152;49.202;18.744;2022-07-23T05:37:24;97368.59;;;23.01;55.06
70589;BME280;58152;49.202;18.744;2022-07-23T05:39:50;97371.13;;;23.03;54.89
70589;BME280;58152;49.202;18.744;2022-07-23T05:42:15;97376.03;;;23.07;55.08
70589;BME280;58152;49.202;18.744;2022-07-23T05:44:41;97371.53;;;23.08;55.11
70589;BME280;58152;49.202;18.744;2022-07-23T05:47:06;97379.25;;;23.11;54.92
70589;BME280;58152;49.202;18.744;2022-07-23T05:49:32;97363.06;;;23.13;54.95
70589;BME280;58152;49.202;18.744;2022-07-23T05:51:57;97361.09;;;23.15;55.16
70589;BME280;58152;49.202;18.744;2022-07-23T05:54:23;97370.06;;;23.23;54.98
70589;BME280;58152;49.202;18.744;2022-07-23T05:56:48;97357.22;;;23.27;55.27
70589;BME280;58152;49.202;18.744;2022-07-23T05:59:15;97350.72;;;23.29;55.21
70589;BME280;58152;49.202;18.744;2022-07-23T06:01:40;97356.09;;;23.29;55.05
70589;BME280;58152;49.202;18.744;2022-07-23T06:04:07;97364.34;;;23.36;54.64
70589;BME280;58152;49.202;18.744;2022-07-23T06:06:35;97359.16;;;23.34;54.79
70589;BME280;58152;49.202;18.744;2022-07-23T06:09:00;97362.13;;;23.31;54.92
70589;BME280;58152;49.202;18.744;2022-07-23T06:11:26;97356.47;;;23.34;54.87
70589;BME280;58152;49.202;18.744;2022-07-23T06:13:51;97355.78;;;23.32;54.69
70589;BME280;58152;49.202;18.744;2022-07-23T06:16:19;97355.78;;;23.32;55.05
70589;BME280;58152;49.202;18.744;2022-07-23T06:18:45;97357.88;;;23.39;55.15
70589;BME280;58152;49.202;18.744;2022-07-23T06:21:10;97356.56;;;23.43;54.87
70589;BME280;58152;49.202;18.744;2022-07-23T06:23:36;97353.16;;;23.50;54.94
70589;BME280;58152;49.202;18.744;2022-07-23T06:26:11;97365.47;;;23.61;54.93
70589;BME280;58152;49.202;18.744;2022-07-23T06:28:36;97367.31;;;23.61;54.44
70589;BME280;58152;49.202;18.744;2022-07-23T06:31:02;97362.97;;;23.59;54.48
70589;BME280;58152;49.202;18.744;2022-07-23T06:33:27;97378.47;;;23.66;54.57
70589;BME280;58152;49.202;18.744;2022-07-23T06:35:53;97373.94;;;23.66;54.56
70589;BME280;58152;49.202;18.744;2022-07-23T06:38:18;97370.25;;;23.67;54.35
70589;BME280;58152;49.202;18.744;2022-07-23T06:40:59;97365.63;;;23.69;54.70
70589;BME280;58152;49.202;18.744;2022-07-23T06:46:48;97366.28;;;23.71;53.80
70589;BME280;58152;49.202;18.744;2022-07-23T06:49:14;97364.31;;;23.73;53.96
70589;BME280;58152;49.202;18.744;2022-07-23T06:51:47;97375.41;;;23.78;54.17
70589;BME280;58152;49.202;18.744;2022-07-23T06:54:13;97359.25;;;23.70;53.95
70589;BME280;58152;49.202;18.744;2022-07-23T06:56:50;97362.31;;;23.75;54.33
70589;BME280;58152;49.202;18.744;2022-07-23T06:59:16;97357.13;;;23.74;54.14
70589;BME280;58152;49.202;18.744;2022-07-23T07:01:45;97358.50;;;23.78;54.38
70589;BME280;58152;49.202;18.744;2022-07-23T07:04:10;97358.34;;;23.79;54.15
70589;BME280;58152;49.202;18.744;2022-07-23T07:06:42;97364.75;;;23.87;54.32
70589;BME280;58152;49.202;18.744;2022-07-23T07:16:30;97366.59;;;24.04;55.36
70589;BME280;58152;49.202;18.744;2022-07-23T07:19:01;97363.63;;;24.07;54.80
70589;BME280;58152;49.202;18.744;2022-07-23T07:21:48;97347.38;;;24.08;55.33
70589;BME280;58152;49.202;18.744;2022-07-23T07:27:51;97340.72;;;24.13;54.59
70589;BME280;58152;49.202;18.744;2022-07-23T07:33:25;97343.19;;;24.24;54.41
70589;BME280;58152;49.202;18.744;2022-07-23T07:36:14;97342.31;;;24.23;55.01
70589;BME280;58152;49.202;18.744;2022-07-23T07:38:47;97345.59;;;24.35;54.65
70589;BME280;58152;49.202;18.744;2022-07-23T07:41:23;97345.72;;;24.43;54.90
70589;BME280;58152;49.202;18.744;2022-07-23T07:44:16;97349.28;;;24.52;54.58
70589;BME280;58152;49.202;18.744;2022-07-23T07:50:38;97349.03;;;24.63;54.64
70589;BME280;58152;49.202;18.744;2022-07-23T07:53:24;97347.53;;;24.69;54.51
70589;BME280;58152;49.202;18.744;2022-07-23T07:55:58;97343.00;;;24.69;53.81
70589;BME280;58152;49.202;18.744;2022-07-23T07:58:39;97346.22;;;24.73;53.66
70589;BME280;58152;49.202;18.744;2022-07-23T08:01:11;97342.06;;;24.78;53.76
70589;BME280;58152;49.202;18.744;2022-07-23T08:03:46;97341.75;;;24.81;53.76
70589;BME280;58152;49.202;18.744;2022-07-23T08:09:51;97333.28;;;24.94;54.33
70589;BME280;58152;49.202;18.744;2022-07-23T08:12:53;97313.31;;;24.97;54.09
70589;BME280;58152;49.202;18.744;2022-07-23T08:15:23;97323.56;;;25.01;54.01
70589;BME280;58152;49.202;18.744;2022-07-23T08:17:49;97308.66;;;24.99;53.65
70589;BME280;58152;49.202;18.744;2022-07-23T08:20:25;97312.34;;;25.06;53.68
70589;BME280;58152;49.202;18.744;2022-07-23T08:22:54;97300.78;;;25.05;53.14
70589;BME280;58152;49.202;18.744;2022-07-23T08:25:29;97305.06;;;25.16;53.46
70589;BME280;58152;49.202;18.744;2022-07-23T08:28:09;97298.69;;;25.17;53.22
70589;BME280;58152;49.202;18.744;2022-07-23T08:31:12;97307.97;;;25.31;53.56
70589;BME280;58152;49.202;18.744;2022-07-23T08:33:40;97303.25;;;25.33;53.34
70589;BME280;58152;49.202;18.744;2022-07-23T08:36:08;97303.97;;;25.35;53.05
70589;BME280;58152;49.202;18.744;2022-07-23T08:38:47;97314.25;;;25.48;52.87
70589;BME280;58152;49.202;18.744;2022-07-23T08:41:18;97317.09;;;25.54;52.37
70589;BME280;58152;49.202;18.744;2022-07-23T08:43:59;97312.59;;;25.63;52.45
70589;BME280;58152;49.202;18.744;2022-07-23T08:46:48;97304.38;;;25.73;52.00
70589;BME280;58152;49.202;18.744;2022-07-23T08:49:32;97305.25;;;25.81;51.39
70589;BME280;58152;49.202;18.744;2022-07-23T08:52:07;97311.50;;;25.98;51.73
70589;BME280;58152;49.202;18.744;2022-07-23T09:01:16;97297.91;;;26.08;51.40
70589;BME280;58152;49.202;18.744;2022-07-23T09:07:09;97298.22;;;26.21;51.09
70589;BME280;58152;49.202;18.744;2022-07-23T09:10:10;97306.63;;;26.34;50.79
70589;BME280;58152;49.202;18.744;2022-07-23T09:16:48;97301.56;;;26.48;50.48
70589;BME280;58152;49.202;18.744;2022-07-23T09:23:31;97280.22;;;26.63;49.16
70589;BME280;58152;49.202;18.744;2022-07-23T09:25:36;97279.50;;;26.69;49.10
70589;BME280;58152;49.202;18.744;2022-07-23T09:38:34;97272.34;;;27.00;47.80
70589;BME280;58152;49.202;18.744;2022-07-23T09:41:36;97271.34;;;27.09;48.51
70589;BME280;58152;49.202;18.744;2022-07-23T09:44:15;97276.31;;;27.21;48.22
70589;BME280;58152;49.202;18.744;2022-07-23T09:46:46;97269.03;;;27.29;48.04
70589;BME280;58152;49.202;18.744;2022-07-23T09:49:26;97269.84;;;27.38;47.27
70589;BME280;58152;49.202;18.744;2022-07-23T09:55:17;97274.41;;;27.60;46.48
70589;BME280;58152;49.202;18.744;2022-07-23T09:57:44;97268.97;;;27.69;46.99
70589;BME280;58152;49.202;18.744;2022-07-23T10:16:28;97251.44;;;28.33;44.90
70589;BME280;58152;49.202;18.744;2022-07-23T10:40:15;97223.91;;;29.63;39.65
70589;BME280;58152;49.202;18.744;2022-07-23T10:54:51;97206.22;;;30.66;37.89
70589;BME280;58152;49.202;18.744;2022-07-23T11:04:59;97203.47;;;30.94;37.28
70589;BME280;58152;49.202;18.744;2022-07-23T11:30:49;97171.19;;;31.80;35.61
70589;BME280;58152;49.202;18.744;2022-07-23T16:30:36;97056.88;;;33.06;32.97
70589;BME280;58152;49.202;18.744;2022-07-23T16:33:35;97066.41;;;32.91;33.78
70589;BME280;58152;49.202;18.744;2022-07-23T17:20:19;97180.50;;;31.38;42.59
70589;BME280;58152;49.202;18.744;2022-07-23T18:29:05;97280.03;;;29.61;47.64
70589;BME280;58152;49.202;18.744;2022-07-23T18:34:41;97288.59;;;29.50;47.22
70589;BME280;58152;49.202;18.744;2022-07-23T18:37:22;97301.66;;;29.46;47.25
70589;BME280;58152;49.202;18.744;2022-07-23T18:39:47;97301.00;;;29.44;46.87
70589;BME280;58152;49.202;18.744;2022-07-23T18:50:11;97321.81;;;29.29;48.50
70589;BME280;58152;49.202;18.744;2022-07-23T20:39:36;97419.72;;;26.98;52.18
70589;BME280;58152;49.202;18.744;2022-07-23T20:49:44;97405.13;;;26.76;52.31
70589;BME280;58152;49.202;18.744;2022-07-23T20:52:19;97396.06;;;26.69;52.21
70589;BME280;58152;49.202;18.744;2022-07-23T22:03:39;97399.22;;;25.57;54.15
70589;BME280;58152;49.202;18.744;2022-07-23T22:10:02;97413.59;;;25.48;55.37
70589;BME280;58152;49.202;18.744;2022-07-23T23:09:24;97487.25;;;24.75;57.88
70589;BME280;58152;49.202;18.744;2022-07-23T23:12:10;97493.47;;;24.76;56.64
70589;BME280;58152;49.202;18.744;2022-07-23T23:14:41;97500.81;;;24.74;56.55
70589;BME280;58152;49.202;18.744;2022-07-23T23:17:28;97503.81;;;24.71;56.56
70589;BME280;58152;49.202;18.744;2022-07-23T23:20:32;97507.81;;;24.67;57.25
70589;BME280;58152;49.202;18.744;2022-07-23T23:23:06;97497.00;;;24.58;56.96
70589;BME280;58152;49.202;18.744;2022-07-23T23:26:22;97502.16;;;24.52;57.64
70589;BME280;58152;49.202;18.744;2022-07-23T23:32:19;97500.72;;;24.30;58.65
70589;BME280;58152;49.202;18.744;2022-07-23T23:35:33;97515.97;;;24.29;57.98
70589;BME280;58152;49.202;18.744;2022-07-23T23:41:52;97510.66;;;24.20;57.61
70589;BME280;58152;49.202;18.744;2022-07-23T23:44:44;97523.53;;;24.16;57.89
70589;BME280;58152;49.202;18.744;2022-07-23T23:50:34;97523.41;;;24.08;58.22
70589;BME280;58152;49.202;18.744;2022-07-23T23:53:21;97515.84;;;24.03;58.58
70589;BME280;58152;49.202;18.744;2022-07-23T23:55:47;97517.00;;;24.01;58.38
70589;BME280;58152;49.202;18.744;2022-07-23T23:58:13;97512.75;;;23.98;58.34
